createdAt,value
2023-02-08T00:00:00.044Z,91.53
2023-02-08T00:02:28.438Z,82.28
2023-02-08T00:04:56.845Z,83.13
2023-02-08T00:07:25.877Z,80.50
2023-02-08T00:09:53.723Z,84.28
2023-02-08T00:12:22.420Z,86.43
2023-02-08T00:14:50.508Z,87.45
2023-02-08T00:17:18.917Z,92.15
2023-02-08T00:19:47.319Z,89.55
2023-02-08T00:22:15.907Z,81.57
2023-02-08T00:24:44.217Z,76.80
2023-02-08T00:27:12.682Z,86.95
2023-02-08T00:29:43.831Z,80.20
2023-02-08T00:32:12.540Z,78.35
2023-02-08T00:34:40.844Z,85.65
2023-02-08T00:37:09.274Z,87.32
2023-02-08T00:39:37.710Z,88.40
2023-02-08T00:42:12.145Z,78.18
2023-02-08T00:44:42.598Z,79.88
2023-02-08T00:47:12.689Z,83.60
2023-02-08T00:49:42.716Z,84.43
2023-02-08T00:52:12.820Z,75.82
2023-02-08T00:54:42.913Z,82.32
2023-02-08T00:57:14.878Z,78.10
2023-02-08T00:59:44.932Z,82.70
2023-02-08T01:02:16.009Z,79.45
2023-02-08T01:04:46.102Z,83.78
2023-02-08T01:07:16.162Z,80.65
2023-02-08T01:09:46.220Z,82.28
2023-02-08T01:12:17.044Z,84.75
2023-02-08T01:14:47.391Z,78.00
2023-02-08T01:17:17.503Z,74.25
2023-02-08T01:19:47.593Z,78.72
2023-02-08T01:22:17.692Z,81.05
2023-02-08T01:24:47.841Z,82.25
2023-02-08T01:27:17.910Z,79.30
2023-02-08T01:29:47.942Z,85.38
2023-02-08T01:32:17.985Z,72.60
2023-02-08T01:34:48.000Z,84.90
2023-02-08T01:37:18.132Z,87.30
2023-02-08T01:39:48.355Z,86.78
2023-02-08T01:42:19.863Z,85.85
2023-02-08T01:45:20.831Z,81.22
2023-02-08T01:48:13.173Z,94.55
2023-02-08T01:51:24.643Z,77.85
2023-02-08T01:54:01.257Z,83.18
2023-02-08T01:56:41.287Z,80.35
2023-02-08T01:59:36.973Z,80.07
2023-02-08T02:02:17.521Z,78.97
2023-02-08T02:04:51.113Z,70.10
2023-02-08T02:07:29.932Z,73.60
2023-02-08T02:10:30.060Z,81.82
2023-02-08T02:13:14.326Z,78.10
2023-02-08T02:15:47.453Z,77.95
2023-02-08T02:18:34.761Z,78.22
2023-02-08T02:21:56.953Z,71.07
2023-02-08T02:25:48.777Z,71.75
2023-02-08T02:32:03.497Z,68.78
2023-02-08T02:35:13.352Z,78.10
2023-02-08T02:38:31.464Z,63.78
2023-02-08T02:41:16.153Z,70.38
2023-02-08T02:43:58.757Z,65.05
2023-02-08T02:46:50.979Z,66.05
2023-02-08T02:49:44.426Z,62.33
2023-02-08T02:53:14.187Z,54.30
2023-02-08T02:56:18.367Z,58.25
2023-02-08T02:58:53.127Z,58.53
2023-02-08T03:01:30.155Z,60.50
2023-02-08T03:03:58.957Z,61.30
2023-02-08T03:07:15.887Z,56.83
2023-02-08T03:10:39.747Z,61.95
2023-02-08T03:13:57.637Z,60.95
2023-02-08T03:16:50.062Z,59.78
2023-02-08T03:19:48.969Z,59.40
2023-02-08T03:22:51.424Z,61.08
2023-02-08T03:25:47.489Z,59.85
2023-02-08T03:29:02.779Z,58.58
2023-02-08T03:31:50.933Z,61.53
2023-02-08T03:34:58.154Z,61.08
2023-02-08T03:38:03.204Z,51.30
2023-02-08T03:40:42.169Z,56.30
2023-02-08T03:43:23.336Z,64.47
2023-02-08T03:46:13.068Z,51.92
2023-02-08T03:48:59.023Z,53.38
2023-02-08T03:51:39.108Z,51.65
2023-02-08T03:54:22.530Z,51.17
2023-02-08T03:57:19.598Z,56.92
2023-02-08T04:00:05.993Z,49.95
2023-02-08T04:03:00.673Z,54.83
2023-02-08T04:05:30.812Z,53.42
2023-02-08T04:08:01.392Z,53.85
2023-02-08T04:10:31.472Z,53.42
2023-02-08T04:13:01.512Z,56.90
2023-02-08T04:15:31.752Z,54.50
2023-02-08T04:18:01.848Z,54.22
2023-02-08T04:20:32.316Z,61.17
2023-02-08T04:23:02.375Z,56.45
2023-02-08T04:25:32.414Z,51.67
2023-02-08T04:28:00.991Z,51.95
2023-02-08T04:30:29.384Z,49.10
2023-02-08T04:33:00.084Z,47.10
2023-02-08T04:35:29.375Z,48.17
2023-02-08T04:37:57.520Z,46.97
2023-02-08T04:40:25.949Z,47.88
2023-02-08T04:42:54.330Z,48.22
2023-02-08T04:45:22.778Z,58.45
2023-02-08T04:47:51.614Z,45.33
2023-02-08T04:50:21.688Z,48.63
2023-02-08T04:52:51.844Z,57.28
2023-02-08T04:55:22.368Z,53.22
2023-02-08T04:57:52.744Z,47.05
2023-02-08T05:00:22.852Z,49.30
2023-02-08T05:02:59.185Z,48.33
2023-02-08T05:05:29.231Z,50.42
2023-02-08T05:08:00.058Z,47.10
2023-02-08T05:10:30.377Z,56.72
2023-02-08T05:13:00.626Z,51.00
2023-02-08T05:15:30.683Z,51.58
2023-02-08T05:18:00.687Z,57.67
2023-02-08T05:20:30.789Z,48.83
2023-02-08T05:23:01.258Z,54.47
2023-02-08T05:25:31.427Z,49.95
2023-02-08T05:28:01.599Z,54.35
2023-02-08T05:30:31.838Z,57.55
2023-02-08T05:33:00.185Z,53.95
2023-02-08T05:35:28.571Z,52.55
2023-02-08T05:37:56.945Z,56.15
2023-02-08T05:40:25.416Z,51.97
2023-02-08T05:42:53.801Z,50.92
2023-02-08T05:45:22.191Z,56.97
2023-02-08T05:47:50.742Z,55.38
2023-02-08T05:50:19.221Z,53.70
2023-02-08T05:52:47.538Z,58.20
2023-02-08T05:55:16.065Z,58.00
2023-02-08T05:57:44.374Z,54.20
2023-02-08T06:00:13.882Z,60.95
2023-02-08T06:02:41.206Z,52.92
2023-02-08T06:05:09.603Z,55.60
2023-02-08T06:07:38.049Z,61.78
2023-02-08T06:10:07.849Z,59.17
2023-02-08T06:12:38.068Z,58.60
2023-02-08T06:15:06.786Z,51.85
2023-02-08T06:17:34.712Z,60.25
2023-02-08T06:20:03.424Z,57.88
2023-02-08T06:22:31.923Z,51.33
2023-02-08T06:24:59.971Z,68.88
2023-02-08T06:27:28.666Z,60.78
2023-02-08T06:29:56.811Z,56.25
2023-02-08T06:32:26.299Z,65.00
2023-02-08T06:34:53.781Z,62.72
2023-02-08T06:37:22.208Z,62.17
2023-02-08T06:39:50.546Z,62.95
2023-02-08T06:42:19.193Z,63.95
2023-02-08T06:44:55.134Z,57.42
2023-02-08T06:47:27.942Z,54.30
2023-02-08T06:49:58.093Z,67.28
2023-02-08T06:52:28.130Z,58.83
2023-02-08T06:54:58.247Z,61.42
2023-02-08T06:57:28.385Z,68.60
2023-02-08T06:59:58.441Z,64.53
2023-02-08T07:02:28.644Z,68.82
2023-02-08T07:04:58.787Z,71.47
2023-02-08T07:07:28.876Z,63.70
2023-02-08T07:09:58.930Z,73.30
2023-02-08T07:12:29.005Z,63.55
2023-02-08T07:14:59.041Z,67.55
2023-02-08T07:17:29.149Z,68.32
2023-02-08T07:19:59.217Z,61.92
2023-02-08T07:22:29.253Z,67.07
2023-02-08T07:24:59.326Z,64.53
2023-02-08T07:27:29.646Z,61.85
2023-02-08T07:29:59.733Z,65.90
2023-02-08T07:32:29.865Z,65.10
2023-02-08T07:34:58.422Z,62.45
2023-02-08T07:37:27.769Z,62.28
2023-02-08T07:39:55.449Z,61.40
2023-02-08T07:42:23.722Z,68.50
2023-02-08T07:44:52.004Z,71.55
2023-02-08T07:47:20.503Z,67.38
2023-02-08T07:49:48.721Z,61.67
2023-02-08T07:52:17.215Z,65.88
2023-02-08T07:54:45.588Z,63.47
2023-02-08T07:57:20.361Z,67.65
2023-02-08T07:59:51.314Z,66.57
2023-02-08T08:02:22.606Z,64.70
2023-02-08T08:04:54.585Z,64.95
2023-02-08T08:07:24.651Z,66.38
2023-02-08T08:09:54.756Z,68.13
2023-02-08T08:12:25.399Z,66.55
2023-02-08T08:14:55.482Z,65.38
2023-02-08T08:17:25.647Z,59.38
2023-02-08T08:19:55.695Z,71.07
2023-02-08T08:22:25.718Z,67.75
2023-02-08T08:24:55.774Z,63.15
2023-02-08T08:27:25.837Z,61.75
2023-02-08T08:29:55.939Z,63.15
2023-02-08T08:32:26.494Z,72.07
2023-02-08T08:34:56.519Z,58.92
2023-02-08T08:37:26.537Z,61.42
2023-02-08T08:39:56.599Z,72.63
2023-02-08T08:42:26.798Z,64.82
2023-02-08T08:44:56.844Z,69.40
2023-02-08T08:47:26.966Z,68.32
2023-02-08T08:49:57.059Z,68.80
2023-02-08T08:52:27.153Z,66.15
2023-02-08T08:54:57.179Z,69.47
2023-02-08T08:57:27.355Z,65.50
2023-02-08T08:59:57.484Z,69.57
2023-02-08T09:02:27.607Z,76.03
2023-02-08T09:05:00.409Z,62.65
2023-02-08T09:07:29.100Z,71.57
2023-02-08T09:09:57.524Z,69.22
2023-02-08T09:12:26.144Z,79.78
2023-02-08T09:14:54.424Z,69.57
2023-02-08T09:17:22.811Z,72.63
2023-02-08T09:19:51.423Z,71.65
2023-02-08T09:22:20.350Z,74.25
2023-02-08T09:24:48.077Z,79.47
2023-02-08T09:27:16.477Z,60.88
2023-02-08T09:29:44.876Z,65.57
2023-02-08T09:32:13.242Z,73.35
2023-02-08T09:34:41.725Z,74.13
2023-02-08T09:37:10.232Z,65.70
2023-02-08T09:39:38.613Z,78.68
2023-02-08T09:42:15.709Z,68.32
2023-02-08T09:45:26.133Z,80.10
2023-02-08T09:48:24.683Z,65.13
2023-02-08T09:51:07.553Z,65.78
2023-02-08T09:53:50.410Z,67.80
2023-02-08T09:56:37.151Z,75.00
2023-02-08T09:59:18.755Z,70.43
2023-02-08T10:01:59.635Z,70.38
2023-02-08T10:04:59.459Z,72.60
2023-02-08T10:10:15.100Z,71.85
2023-02-08T10:14:27.419Z,64.47
2023-02-08T10:17:45.728Z,71.68
2023-02-08T10:20:41.271Z,68.38
2023-02-08T10:24:12.052Z,65.18
2023-02-08T10:27:03.010Z,61.55
2023-02-08T10:29:50.648Z,71.38
2023-02-08T10:32:44.848Z,73.97
2023-02-08T10:35:37.043Z,72.68
2023-02-08T10:38:45.468Z,67.13
2023-02-08T10:41:29.805Z,69.32
2023-02-08T10:44:26.020Z,70.28
2023-02-08T10:47:18.675Z,70.28
2023-02-08T10:50:30.157Z,67.53
2023-02-08T10:53:00.909Z,63.70
2023-02-08T10:55:45.989Z,61.42
2023-02-08T10:58:26.590Z,63.40
2023-02-08T11:00:58.491Z,65.63
2023-02-08T11:03:30.266Z,72.45
2023-02-08T11:05:58.604Z,77.10
2023-02-08T11:08:29.173Z,66.88
2023-02-08T11:11:10.761Z,68.97
2023-02-08T11:13:45.741Z,68.38
2023-02-08T11:16:26.041Z,66.05
2023-02-08T11:19:02.707Z,63.38
2023-02-08T11:21:42.314Z,62.13
2023-02-08T11:24:15.262Z,69.45
2023-02-08T11:26:44.843Z,67.00
2023-02-08T11:29:27.219Z,70.20
2023-02-08T11:32:19.634Z,68.60
2023-02-08T11:34:50.413Z,67.40
2023-02-08T11:37:28.733Z,65.78
2023-02-08T11:40:03.933Z,63.70
2023-02-08T11:42:47.187Z,59.65
2023-02-08T11:45:35.421Z,68.18
2023-02-08T11:48:42.966Z,66.95
2023-02-08T11:51:32.054Z,65.78
2023-02-08T11:54:05.786Z,64.03
2023-02-08T11:56:35.535Z,71.38
2023-02-08T11:59:24.885Z,70.68
2023-02-08T12:01:55.365Z,64.13
2023-02-08T12:04:25.484Z,67.05
2023-02-08T12:07:19.771Z,69.55
2023-02-08T12:10:26.567Z,68.57
2023-02-08T12:13:33.802Z,75.88
2023-02-08T12:17:27.274Z,70.03
2023-02-08T12:20:39.361Z,65.28
2023-02-08T12:23:59.257Z,74.78
2023-02-08T12:27:41.754Z,66.65
2023-02-08T12:30:59.710Z,64.22
2023-02-08T12:34:01.142Z,62.35
2023-02-08T12:37:57.795Z,64.65
2023-02-08T12:41:21.966Z,59.13
2023-02-08T12:44:34.603Z,62.13
2023-02-08T12:47:35.822Z,63.17
2023-02-08T12:50:47.849Z,66.53
2023-02-08T12:53:33.542Z,64.65
2023-02-08T12:56:19.092Z,61.58
2023-02-08T12:59:08.261Z,59.67
2023-02-08T13:01:52.486Z,64.38
2023-02-08T13:04:43.714Z,58.42
2023-02-08T13:07:35.423Z,62.42
2023-02-08T13:10:42.678Z,65.65
2023-02-08T13:13:26.234Z,61.35
2023-02-08T13:16:18.190Z,62.67
2023-02-08T13:19:21.066Z,61.15
2023-02-08T13:21:55.556Z,61.22
2023-02-08T13:24:42.413Z,58.28
2023-02-08T13:27:20.767Z,63.72
2023-02-08T13:29:53.238Z,61.17
2023-02-08T13:32:44.560Z,64.93
2023-02-08T13:35:30.321Z,63.63
2023-02-08T13:38:34.854Z,57.53
2023-02-08T13:41:31.813Z,59.65
2023-02-08T13:44:20.593Z,57.13
2023-02-08T13:46:52.567Z,59.72
2023-02-08T13:49:50.741Z,60.47
2023-02-08T13:52:48.017Z,57.65
2023-02-08T13:55:30.847Z,53.22
2023-02-08T13:58:27.224Z,55.60
2023-02-08T14:00:57.127Z,58.00
2023-02-08T14:06:29.697Z,57.17
2023-02-08T14:09:23.925Z,53.30
2023-02-08T14:12:14.552Z,52.75
2023-02-08T14:15:14.417Z,52.40
2023-02-08T14:17:50.592Z,55.90
2023-02-08T14:20:41.646Z,53.90
2023-02-08T14:23:32.585Z,57.25
2023-02-08T14:26:21.230Z,53.80
2023-02-08T14:29:01.430Z,61.22
2023-02-08T14:31:43.273Z,56.63
2023-02-08T14:34:35.577Z,54.70
2023-02-08T14:37:33.365Z,59.90
2023-02-08T14:40:24.715Z,62.25
2023-02-08T14:43:37.556Z,57.70
2023-02-08T14:46:39.157Z,59.83
2023-02-08T14:49:17.810Z,55.67
2023-02-08T14:54:50.471Z,59.05
2023-02-08T14:57:31.728Z,52.95
2023-02-08T15:00:22.456Z,58.70
2023-02-08T15:02:56.007Z,56.17
2023-02-08T15:05:35.827Z,56.90
2023-02-08T15:08:06.154Z,62.97
2023-02-08T15:10:45.197Z,52.45
2023-02-08T15:13:24.746Z,55.63
2023-02-08T15:15:58.846Z,56.58
2023-02-08T15:18:33.304Z,57.55
2023-02-08T15:21:22.353Z,56.33
2023-02-08T15:24:23.870Z,59.10
2023-02-08T15:26:57.482Z,54.97
2023-02-08T15:29:42.860Z,54.42
2023-02-08T15:32:21.932Z,47.78
2023-02-08T15:35:03.400Z,50.07
2023-02-08T15:37:35.519Z,61.75
2023-02-08T15:40:05.962Z,53.22
2023-02-08T15:42:44.260Z,54.38
2023-02-08T15:45:40.681Z,55.00
2023-02-08T15:48:13.713Z,54.72
2023-02-08T15:50:44.245Z,56.78
2023-02-08T15:53:16.874Z,47.97
2023-02-08T15:56:02.556Z,54.50
2023-02-08T15:58:55.428Z,47.58
2023-02-08T16:01:25.486Z,47.00
2023-02-08T16:04:12.388Z,51.78
2023-02-08T16:06:59.798Z,51.72
2023-02-08T16:09:30.354Z,46.75
2023-02-08T16:12:01.544Z,52.17
2023-02-08T16:14:43.896Z,51.25
2023-02-08T16:17:48.898Z,57.40
2023-02-08T16:20:35.358Z,48.67
2023-02-08T16:23:30.045Z,52.63
2023-02-08T16:26:32.293Z,48.75
2023-02-08T16:29:05.890Z,45.50
2023-02-08T16:31:36.389Z,51.20
2023-02-08T16:34:18.288Z,51.28
2023-02-08T16:36:52.871Z,58.50
2023-02-08T16:39:46.857Z,48.92
2023-02-08T16:42:44.235Z,57.88
2023-02-08T16:45:20.788Z,55.30
2023-02-08T16:47:58.414Z,56.22
2023-02-08T16:50:30.396Z,57.05
2023-02-08T16:53:04.623Z,53.15
2023-02-08T16:55:38.409Z,53.63
2023-02-08T16:58:15.905Z,56.42
2023-02-08T17:00:46.440Z,50.95
2023-02-08T17:03:16.856Z,56.10
2023-02-08T17:05:47.670Z,57.35
2023-02-08T17:08:21.740Z,55.20
2023-02-08T17:10:52.062Z,61.50
2023-02-08T17:13:24.529Z,57.83
2023-02-08T17:15:54.993Z,53.55
2023-02-08T17:18:25.080Z,63.53
2023-02-08T17:20:59.681Z,58.47
2023-02-08T17:23:29.763Z,51.63
2023-02-08T17:25:58.311Z,54.53
2023-02-08T17:28:27.873Z,57.53
2023-02-08T17:30:55.204Z,58.92
2023-02-08T17:33:23.495Z,54.05
2023-02-08T17:35:53.892Z,57.08
2023-02-08T17:38:23.424Z,54.72
2023-02-08T17:40:51.821Z,57.95
2023-02-08T17:43:20.459Z,45.83
2023-02-08T17:45:48.755Z,53.22
2023-02-08T17:48:17.568Z,56.10
2023-02-08T17:50:50.982Z,57.15
2023-02-08T17:53:21.222Z,61.55
2023-02-08T17:55:52.590Z,63.33
2023-02-08T17:58:22.680Z,52.53
2023-02-08T18:00:52.769Z,52.08
2023-02-08T18:03:22.856Z,53.60
2023-02-08T18:05:59.614Z,58.20
2023-02-08T18:08:29.670Z,52.33
2023-02-08T18:11:12.945Z,59.78
2023-02-08T18:13:43.018Z,58.20
2023-02-08T18:16:22.930Z,51.03
2023-02-08T18:18:55.589Z,51.90
2023-02-08T18:21:26.528Z,53.20
2023-02-08T18:23:55.745Z,47.30
2023-02-08T18:26:25.921Z,52.72
2023-02-08T18:28:56.425Z,55.60
2023-02-08T18:31:26.787Z,54.22
2023-02-08T18:33:57.587Z,53.25
2023-02-08T18:36:26.576Z,49.40
2023-02-08T18:38:57.262Z,53.97
2023-02-08T18:41:30.930Z,49.85
2023-02-08T18:44:00.360Z,52.55
2023-02-08T18:46:30.145Z,52.65
2023-02-08T18:49:00.158Z,51.30
2023-02-08T18:51:31.818Z,60.30
2023-02-08T18:54:01.225Z,55.80
2023-02-08T18:56:33.191Z,58.72
2023-02-08T18:59:03.149Z,56.97
2023-02-08T19:01:33.302Z,61.33
2023-02-08T19:04:04.852Z,51.70
2023-02-08T19:06:37.757Z,49.78
2023-02-08T19:09:09.317Z,55.17
2023-02-08T19:11:41.313Z,54.88
2023-02-08T19:14:15.870Z,53.78
2023-02-08T19:16:45.032Z,50.58
2023-02-08T19:21:42.738Z,49.55
2023-02-08T19:24:15.328Z,48.55
2023-02-08T19:26:43.559Z,56.10
2023-02-08T19:29:21.903Z,56.30
2023-02-08T19:34:21.810Z,51.65
2023-02-08T19:36:55.133Z,51.30
2023-02-08T19:39:27.777Z,51.70
2023-02-08T19:41:58.980Z,63.35
2023-02-08T19:44:30.502Z,58.45
2023-02-08T19:46:59.898Z,50.25
2023-02-08T19:49:28.555Z,54.58
2023-02-08T19:51:57.100Z,53.58
2023-02-08T19:54:25.489Z,43.63
2023-02-08T19:56:54.893Z,52.13
2023-02-08T19:59:34.159Z,54.05
2023-02-08T20:02:06.317Z,50.45
2023-02-08T20:04:34.816Z,50.42
2023-02-08T20:07:06.193Z,54.35
2023-02-08T20:09:37.299Z,47.00
2023-02-08T20:12:10.290Z,53.95
2023-02-08T20:14:40.266Z,46.92
2023-02-08T20:17:10.159Z,51.38
2023-02-08T20:19:39.943Z,48.30
2023-02-08T20:22:09.786Z,55.13
2023-02-08T20:24:39.620Z,49.97
2023-02-08T20:27:09.412Z,51.58
2023-02-08T20:29:39.345Z,48.75
2023-02-08T20:32:09.786Z,52.08
2023-02-08T20:34:47.422Z,58.35
2023-02-08T20:37:23.107Z,59.45
2023-02-08T20:39:51.134Z,56.92
2023-02-08T20:42:19.761Z,51.95
2023-02-08T20:44:48.071Z,55.05
2023-02-08T20:47:19.236Z,54.17
2023-02-08T20:49:50.151Z,46.08
2023-02-08T20:52:19.920Z,52.65
2023-02-08T20:54:49.668Z,50.80
2023-02-08T20:57:19.545Z,50.90
2023-02-08T20:59:53.496Z,43.83
2023-02-08T21:02:24.628Z,47.17
2023-02-08T21:04:54.322Z,49.00
2023-02-08T21:07:24.101Z,44.45
2023-02-08T21:09:53.939Z,44.47
2023-02-08T21:12:25.889Z,44.97
2023-02-08T21:14:55.514Z,46.38
2023-02-08T21:17:25.470Z,46.25
2023-02-08T21:19:55.230Z,38.05
2023-02-08T21:22:24.978Z,42.05
2023-02-08T21:24:55.007Z,38.75
2023-02-08T21:27:24.818Z,46.55
2023-02-08T21:29:54.760Z,46.38
2023-02-08T21:32:24.742Z,42.38
2023-02-08T21:34:54.504Z,42.17
2023-02-08T21:37:24.281Z,47.45
2023-02-08T21:39:54.055Z,41.13
2023-02-08T21:42:24.092Z,47.70
2023-02-08T21:44:53.848Z,38.88
2023-02-08T21:47:23.573Z,46.08
2023-02-08T21:50:12.072Z,41.30
2023-02-08T21:53:00.685Z,42.97
2023-02-08T21:55:30.202Z,44.67
2023-02-08T21:57:59.940Z,47.83
2023-02-08T22:00:28.458Z,45.67
2023-02-08T22:02:56.840Z,49.13
2023-02-08T22:05:25.207Z,42.83
2023-02-08T22:07:58.151Z,50.67
2023-02-08T22:10:32.168Z,45.58
2023-02-08T22:13:00.534Z,41.53
2023-02-08T22:15:31.234Z,44.95
2023-02-08T22:18:03.656Z,47.10
2023-02-08T22:20:32.624Z,41.92
2023-02-08T22:23:03.388Z,49.10
2023-02-08T22:25:32.894Z,42.70
2023-02-08T22:28:02.999Z,48.35
2023-02-08T22:30:33.155Z,44.92
2023-02-08T22:33:03.440Z,45.85
2023-02-08T22:35:33.462Z,40.38
2023-02-08T22:38:03.553Z,48.00
2023-02-08T22:40:33.765Z,40.78
2023-02-08T22:43:03.919Z,38.20
2023-02-08T22:45:34.079Z,44.42
2023-02-08T22:48:06.733Z,40.13
2023-02-08T22:50:38.213Z,42.70
2023-02-08T22:53:08.173Z,42.08
2023-02-08T22:55:35.415Z,40.65
2023-02-08T22:58:05.473Z,36.92
2023-02-08T23:00:35.562Z,40.67
2023-02-08T23:03:05.864Z,46.42
2023-02-08T23:05:45.586Z,47.30
2023-02-08T23:08:17.139Z,50.08
2023-02-08T23:10:46.235Z,41.85
2023-02-08T23:13:14.667Z,39.92
2023-02-08T23:18:13.935Z,39.05
2023-02-08T23:20:42.629Z,41.95
2023-02-08T23:23:10.870Z,41.85
2023-02-08T23:25:41.207Z,40.33
2023-02-08T23:28:13.284Z,38.90
2023-02-08T23:30:44.285Z,42.85
2023-02-08T23:33:14.632Z,35.47
2023-02-08T23:35:44.664Z,39.20
2023-02-08T23:38:14.769Z,42.40
2023-02-08T23:40:45.145Z,44.67
2023-02-08T23:43:15.351Z,40.92
2023-02-08T23:45:45.379Z,46.15
2023-02-08T23:48:15.419Z,41.58
2023-02-08T23:50:45.705Z,47.22
2023-02-08T23:53:15.935Z,37.55
2023-02-08T23:55:45.999Z,45.78
2023-02-08T23:58:16.076Z,39.05
